Time;durP1;ratioP1;P1;durP2;ratioP2;P2;SDS_P1;SDS_P2;PMS_P1;PMS_P2;Temp;Humidity;BMP_temperature;BMP_pressure;BME280_temperature;BME280_humidity;BME280_pressure;Samples;Min_cycle;Max_cycle;Signal;HPM_P1;HPM_P2
2022/04/18 00:01:35;;;;;;;3.30;2.50;;;;;;;20.34;38.68;102124.88;5053655;28;20040;-39
2022/04/18 00:04:02;;;;;;;4.18;2.65;;;;;;;20.33;38.15;102116.91;5051502;28;20489;-40
2022/04/18 00:06:29;;;;;;;2.88;2.38;;;;;;;20.32;38.43;102120.59;5052292;28;20047;-40
2022/04/18 00:08:55;;;;;;;4.65;2.78;;;;;;;20.31;38.77;102121.59;5050714;28;20320;-40
2022/04/18 00:11:22;;;;;;;4.60;3.13;;;;;;;20.30;38.48;102117.16;5053057;28;20076;-39
2022/04/18 00:13:48;;;;;;;4.28;2.50;;;;;;;20.28;38.33;102122.69;5049438;28;20067;-40
2022/04/18 00:16:15;;;;;;;6.10;3.20;;;;;;;20.28;38.79;102117.31;5051687;28;20033;-40
2022/04/18 00:18:42;;;;;;;4.53;2.75;;;;;;;20.27;38.54;102107.53;5055792;28;20056;-40
2022/04/18 00:21:08;;;;;;;4.72;2.65;;;;;;;20.27;38.46;102117.47;5053628;28;20129;-40
2022/04/18 00:23:35;;;;;;;4.43;2.63;;;;;;;20.24;39.02;102112.34;5049833;28;20040;-41
2022/04/18 00:26:02;;;;;;;4.30;2.83;;;;;;;20.24;38.65;102105.13;5051686;28;20438;-41
2022/04/18 00:28:28;;;;;;;6.28;2.78;;;;;;;20.23;38.37;102110.66;5051473;28;20045;-39
2022/04/18 00:30:55;;;;;;;3.88;2.80;;;;;;;20.21;38.14;102116.16;5051549;28;20053;-44
2022/04/18 00:33:21;;;;;;;5.63;3.00;;;;;;;20.20;39.23;102109.94;5051310;28;20041;-39
2022/04/18 00:35:48;;;;;;;5.13;2.80;;;;;;;20.20;38.83;102106.38;5053197;28;20056;-39
2022/04/18 00:38:14;;;;;;;5.13;2.88;;;;;;;20.19;38.66;102116.31;5050710;28;20041;-40
2022/04/18 00:40:41;;;;;;;5.05;2.40;;;;;;;20.18;39.09;102106.53;5051249;28;20431;-39
2022/04/18 00:43:08;;;;;;;4.25;2.90;;;;;;;20.19;39.03;102107.38;5051514;28;20041;-39
2022/04/18 00:45:34;;;;;;;3.65;2.80;;;;;;;20.18;38.89;102105.66;5051237;28;20033;-40
2022/04/18 00:48:02;;;;;;;4.10;2.75;;;;;;;20.17;38.69;102099.44;5049870;28;20325;-39
2022/04/18 00:50:31;;;;;;;4.57;3.00;;;;;;;20.18;38.91;102108.34;5051857;28;20056;-39
2022/04/18 00:52:58;;;;;;;6.20;3.30;;;;;;;20.16;38.95;102104.97;5052819;28;20047;-39
2022/04/18 00:55:26;;;;;;;4.93;3.05;;;;;;;20.15;38.89;102106.81;5050233;28;20047;-40
2022/04/18 00:57:54;;;;;;;6.05;3.20;;;;;;;20.14;39.24;102106.91;5051248;28;20387;-39
2022/04/18 01:00:22;;;;;;;5.85;3.65;;;;;;;20.14;38.81;102101.53;5050102;28;20045;-40
2022/04/18 01:02:48;;;;;;;5.10;3.20;;;;;;;20.13;38.80;102106.06;5049499;28;20132;-40
2022/04/18 01:05:15;;;;;;;5.28;3.28;;;;;;;20.11;38.77;102099.16;5050555;28;20040;-40
2022/04/18 01:07:42;;;;;;;6.30;3.17;;;;;;;20.11;39.42;102091.06;5052523;28;20045;-40
2022/04/18 01:10:09;;;;;;;5.15;2.97;;;;;;;20.11;39.14;102088.38;5052004;28;20127;-40
2022/04/18 01:12:35;;;;;;;5.32;3.17;;;;;;;20.09;38.46;102091.19;5052386;28;20041;-38
2022/04/18 01:15:02;;;;;;;5.53;3.38;;;;;;;20.07;38.61;102087.78;5046677;28;20037;-40
2022/04/18 01:17:29;;;;;;;6.00;2.97;;;;;;;20.07;39.01;102097.72;5050682;28;20488;-39
2022/04/18 01:19:55;;;;;;;5.13;2.97;;;;;;;20.06;39.29;102099.56;5052945;28;20049;-39
2022/04/18 01:22:24;;;;;;;6.72;3.60;;;;;;;20.06;39.34;102096.88;5051032;28;20504;-39
2022/04/18 01:30:20;;;;;;;4.75;3.20;;;;;;;20.03;38.97;102093.59;5049315;28;20363;-39
2022/04/18 01:32:49;;;;;;;6.15;3.15;;;;;;;20.00;38.71;102094.69;5050399;28;20045;-39
2022/04/18 01:35:16;;;;;;;6.15;3.15;;;;;;;19.99;38.79;102095.69;5052212;28;20391;-40
2022/04/18 01:37:42;;;;;;;5.32;3.40;;;;;;;19.99;38.78;102087.63;5053500;28;20051;-40
2022/04/18 01:40:09;;;;;;;4.93;3.08;;;;;;;19.94;39.03;102088.03;5052671;28;20123;-40
2022/04/18 01:42:35;;;;;;;6.63;3.20;;;;;;;19.95;38.45;102086.19;5050786;28;20120;-40
2022/04/18 01:45:02;;;;;;;5.00;3.45;;;;;;;19.93;39.26;102085.47;5050975;28;20045;-40
2022/04/18 01:47:29;;;;;;;4.97;3.33;;;;;;;19.92;39.27;102078.38;5051367;28;20036;-40
2022/04/18 01:49:55;;;;;;;6.47;3.35;;;;;;;19.92;38.71;102081.06;5051287;28;20331;-40
2022/04/18 01:52:22;;;;;;;7.82;3.50;;;;;;;19.88;38.88;102080.50;5049929;28;20424;-40
2022/04/18 01:54:48;;;;;;;10.02;3.97;;;;;;;19.86;39.33;102077.09;5050243;28;20132;-40
2022/04/18 01:57:15;;;;;;;4.75;3.65;;;;;;;19.86;38.78;102079.78;5050654;28;20120;-39
2022/04/18 01:59:42;;;;;;;5.43;3.88;;;;;;;19.85;38.89;102080.75;5049473;28;20059;-40
2022/04/18 02:02:09;;;;;;;5.35;3.20;;;;;;;19.84;39.32;102078.22;5050173;28;20072;-40
2022/04/18 02:04:35;;;;;;;6.28;3.60;;;;;;;19.84;39.58;102081.75;5049886;28;20059;-40
2022/04/18 02:07:02;;;;;;;5.57;3.42;;;;;;;19.84;39.49;102075.53;5051279;28;20059;-40
2022/04/18 02:09:29;;;;;;;6.38;3.88;;;;;;;19.81;39.19;102075.78;5049490;28;20132;-40
2022/04/18 02:11:55;;;;;;;4.53;3.15;;;;;;;19.78;39.84;102067.97;5049650;28;20124;-40
2022/04/18 02:14:22;;;;;;;6.90;3.15;;;;;;;19.78;39.53;102074.25;5049364;28;20045;-40
2022/04/18 02:16:48;;;;;;;5.90;2.88;;;;;;;19.77;39.17;102067.13;5050208;28;20051;-40
2022/04/18 02:19:15;;;;;;;5.35;3.30;;;;;;;19.77;39.65;102068.97;5051272;28;20121;-39
2022/04/18 02:21:41;;;;;;;5.25;3.42;;;;;;;19.76;39.40;102065.44;5050858;28;21025;-39
2022/04/18 02:24:08;;;;;;;5.25;3.05;;;;;;;19.74;39.72;102059.34;5049343;28;20052;-40
2022/04/18 02:26:34;;;;;;;5.32;3.10;;;;;;;19.72;39.82;102056.78;5048294;28;20124;-40
2022/04/18 02:29:01;;;;;;;5.85;3.58;;;;;;;19.73;39.71;102065.69;5051160;28;20589;-40
2022/04/18 02:31:27;;;;;;;3.92;3.05;;;;;;;19.70;39.43;102066.84;5053020;28;20045;-40
2022/04/18 02:33:54;;;;;;;6.30;3.78;;;;;;;19.69;39.32;102062.41;5055221;28;20065;-40
2022/04/18 02:36:21;;;;;;;5.45;3.47;;;;;;;19.68;40.07;102055.34;5054199;28;20454;-39
2022/04/18 02:38:47;;;;;;;7.93;3.53;;;;;;;19.68;39.90;102068.78;5053515;28;20045;-39
2022/04/18 02:41:14;;;;;;;4.47;3.15;;;;;;;19.66;39.76;102062.72;5056058;28;20056;-39
2022/04/18 02:43:40;;;;;;;5.70;3.33;;;;;;;19.64;39.77;102056.59;5053230;28;20437;-39
2022/04/18 02:46:07;;;;;;;6.25;3.30;;;;;;;19.64;40.09;102064.69;5051360;28;20119;-39
2022/04/18 02:48:33;;;;;;;5.60;3.10;;;;;;;19.63;39.33;102054.91;5054416;28;20391;-39
2022/04/18 02:51:00;;;;;;;3.75;2.75;;;;;;;19.62;39.91;102052.38;5053781;28;20055;-39
2022/04/18 02:53:26;;;;;;;5.80;3.60;;;;;;;19.60;40.09;102049.75;5053584;28;20041;-39
2022/04/18 02:55:53;;;;;;;6.45;3.42;;;;;;;19.60;40.03;102048.91;5055128;28;20124;-39
2022/04/18 02:58:19;;;;;;;3.75;2.65;;;;;;;19.60;40.08;102047.06;5055267;28;20120;-39
2022/04/18 03:00:46;;;;;;;6.25;3.05;;;;;;;19.59;39.67;102050.75;5051646;28;20496;-39
2022/04/18 03:03:12;;;;;;;7.78;3.20;;;;;;;19.57;39.85;102044.63;5054092;28;20124;-39
2022/04/18 03:05:39;;;;;;;4.93;3.10;;;;;;;19.57;40.08;102050.03;5053744;28;20037;-39
2022/04/18 03:08:05;;;;;;;6.05;3.40;;;;;;;19.55;40.06;102038.56;5053196;28;20087;-40
2022/04/18 03:13:18;;;;;;;4.28;3.28;;;;;;;19.53;40.21;102037.81;5055912;28;20072;-39
2022/04/18 03:15:45;;;;;;;6.50;3.58;;;;;;;19.53;39.73;102031.59;5052347;28;20049;-40
2022/04/18 03:18:11;;;;;;;5.28;3.40;;;;;;;19.52;39.96;102036.13;5053621;28;20286;-39
2022/04/18 03:20:38;;;;;;;5.97;3.50;;;;;;;19.51;39.84;102034.44;5055272;28;20055;-39
2022/04/18 03:23:04;;;;;;;5.57;3.40;;;;;;;19.51;39.64;102025.53;5053007;28;20472;-39
2022/04/18 03:25:31;;;;;;;4.53;3.17;;;;;;;19.48;39.84;102024.78;5053607;28;20063;-39
2022/04/18 03:27:57;;;;;;;5.85;3.60;;;;;;;19.48;40.13;102030.16;5052705;28;20044;-39
2022/04/18 03:30:24;;;;;;;4.32;2.88;;;;;;;19.46;39.61;102031.31;5052696;28;20323;-39
2022/04/18 03:32:50;;;;;;;4.47;3.13;;;;;;;19.44;40.43;102031.41;5055699;28;20151;-39
2022/04/18 03:35:17;;;;;;;4.68;2.90;;;;;;;19.45;40.35;102040.34;5052094;28;20047;-40
2022/04/18 03:40:28;;;;;;;6.47;3.28;;;;;;;19.44;40.49;102030.56;5050874;28;20119;-40
2022/04/18 03:42:55;;;;;;;4.40;2.90;;;;;;;19.42;40.37;102029.88;5050595;28;20047;-40
2022/04/18 03:45:21;;;;;;;6.35;3.50;;;;;;;19.41;40.63;102030.84;5052244;28;20076;-40
2022/04/18 03:47:48;;;;;;;5.72;3.08;;;;;;;19.40;40.19;102018.38;5053366;28;20495;-40
2022/04/18 03:50:14;;;;;;;5.85;3.05;;;;;;;19.39;40.48;102022.06;5052097;28;20063;-40
2022/04/18 03:52:41;;;;;;;4.88;3.10;;;;;;;19.38;39.92;102031.97;5052944;28;20041;-40
2022/04/18 03:55:08;;;;;;;4.05;2.97;;;;;;;19.39;40.49;102027.44;5050267;28;20439;-40
2022/04/18 03:57:34;;;;;;;3.72;2.70;;;;;;;19.37;40.31;102024.03;5051264;28;20049;-40
2022/04/18 04:00:01;;;;;;;6.53;3.50;;;;;;;19.36;40.03;102019.63;5051448;28;20049;-40
2022/04/18 04:02:27;;;;;;;4.85;2.80;;;;;;;19.35;40.37;102028.69;5052803;28;20045;-39
2022/04/18 04:04:54;;;;;;;4.65;2.70;;;;;;;19.32;40.28;102016.38;5051551;28;20056;-40
2022/04/18 04:07:20;;;;;;;5.32;3.40;;;;;;;19.31;40.13;102020.03;5052722;28;20049;-40
2022/04/18 04:09:47;;;;;;;5.53;3.20;;;;;;;19.32;40.30;102021.75;5051276;28;20055;-40
2022/04/18 04:12:13;;;;;;;7.63;3.05;;;;;;;19.32;40.44;102021.75;5054702;28;20055;-40
2022/04/18 04:14:40;;;;;;;7.30;2.92;;;;;;;19.30;40.44;102020.19;5051053;28;20060;-40
2022/04/18 04:17:07;;;;;;;4.65;3.03;;;;;;;19.28;40.53;102020.31;5052851;28;20037;-40
2022/04/18 04:19:33;;;;;;;5.72;3.00;;;;;;;19.24;40.99;102021.56;5052320;28;20109;-40
2022/04/18 04:22:00;;;;;;;7.07;3.05;;;;;;;19.26;40.65;102021.41;5052128;28;20055;-40
2022/04/18 04:24:26;;;;;;;4.40;2.85;;;;;;;19.24;40.17;102017.03;5050742;28;20041;-40
2022/04/18 04:26:53;;;;;;;4.30;2.83;;;;;;;19.25;40.31;102020.56;5049505;28;20048;-40
2022/04/18 04:29:19;;;;;;;4.00;2.97;;;;;;;19.24;40.93;102021.56;5052071;28;20302;-40
2022/04/18 04:31:46;;;;;;;3.80;2.78;;;;;;;19.23;41.12;102022.56;5053589;28;20055;-40
2022/04/18 04:34:13;;;;;;;4.50;3.30;;;;;;;19.22;40.99;102015.47;5053367;28;20044;-40
2022/04/18 04:36:40;;;;;;;5.70;3.13;;;;;;;19.22;41.12;102019.00;5052667;28;20072;-40
2022/04/18 04:39:08;;;;;;;5.35;2.60;;;;;;;19.20;41.38;102014.75;5051441;28;20045;-40
2022/04/18 04:41:36;;;;;;;5.53;2.80;;;;;;;19.19;40.59;102016.59;5051896;28;20044;-40
2022/04/18 04:44:04;;;;;;;4.03;2.47;;;;;;;19.20;40.89;102015.59;5050676;28;20063;-40
2022/04/18 04:46:30;;;;;;;3.13;2.20;;;;;;;19.18;40.67;102016.72;5051579;28;20041;-40
2022/04/18 04:48:57;;;;;;;4.90;2.95;;;;;;;19.18;40.76;102012.19;5053227;28;20490;-40
2022/04/18 04:51:24;;;;;;;3.53;2.72;;;;;;;19.19;41.24;102021.09;5051765;28;20041;-41
2022/04/18 04:53:50;;;;;;;3.60;2.50;;;;;;;19.17;40.61;102015.00;5047631;28;20113;-40
2022/04/18 04:56:17;;;;;;;4.55;3.10;;;;;;;19.17;41.17;102015.84;5050882;28;20055;-40
2022/04/18 04:58:44;;;;;;;5.63;2.75;;;;;;;19.17;40.66;102015.00;5050946;28;20076;-40
2022/04/18 05:01:10;;;;;;;5.22;2.85;;;;;;;19.17;40.54;102012.31;5050670;28;20051;-40
2022/04/18 05:03:37;;;;;;;4.65;2.72;;;;;;;19.16;41.17;102014.16;5050322;28;20416;-41
2022/04/18 05:06:04;;;;;;;3.13;2.50;;;;;;;19.16;41.18;102022.22;5051255;28;20056;-41
2022/04/18 05:08:30;;;;;;;4.55;3.03;;;;;;;19.18;40.86;102014.03;5051790;28;20051;-41
2022/04/18 05:10:59;;;;;;;3.38;2.50;;;;;;;19.18;40.35;102012.19;5048775;28;20059;-41
2022/04/18 05:13:27;;;;;;;4.55;2.80;;;;;;;19.19;40.87;102003.16;5050894;28;20432;-40
2022/04/18 05:15:54;;;;;;;3.42;2.35;;;;;;;19.23;41.05;102015.34;5050434;28;20107;-40
2022/04/18 05:18:20;;;;;;;4.22;2.90;;;;;;;19.24;40.59;102010.81;5051667;28;20045;-40
2022/04/18 05:20:47;;;;;;;4.95;2.88;;;;;;;19.27;40.47;102012.38;5051679;28;20446;-40
2022/04/18 05:23:20;;;;;;;4.80;2.65;;;;;;;19.30;40.48;102017.50;5049521;28;20171;-39
2022/04/18 05:25:46;;;;;;;4.73;3.20;;;;;;;19.31;40.45;102024.56;5051403;28;20132;-39
2022/04/18 05:28:13;;;;;;;3.95;2.70;;;;;;;19.32;40.09;102016.38;5051102;28;20072;-39
2022/04/18 05:30:40;;;;;;;4.78;2.63;;;;;;;19.33;40.17;102012.69;5050509;28;20049;-39
2022/04/18 05:33:07;;;;;;;4.18;2.67;;;;;;;19.34;39.79;102016.25;5051638;28;20059;-40
2022/04/18 05:35:33;;;;;;;3.05;2.42;;;;;;;19.32;39.84;102029.81;5049800;28;20124;-39
2022/04/18 05:38:00;;;;;;;5.97;2.78;;;;;;;19.30;39.90;102028.25;5050480;28;20147;-39
2022/04/18 05:40:27;;;;;;;4.35;2.95;;;;;;;19.29;39.75;102029.22;5050342;28;20124;-39
2022/04/18 05:42:54;;;;;;;5.38;2.85;;;;;;;19.29;39.55;102037.28;5050168;28;20045;-39
2022/04/18 05:45:21;;;;;;;4.85;2.90;;;;;;;19.29;40.24;102034.59;5049367;28;20041;-40
2022/04/18 05:47:48;;;;;;;5.43;2.80;;;;;;;19.28;39.74;102033.75;5049917;28;20124;-40
2022/04/18 05:50:15;;;;;;;4.68;3.10;;;;;;;19.29;39.46;102038.13;5049785;28;20079;-40
2022/04/18 05:52:42;;;;;;;4.30;3.00;;;;;;;19.27;39.78;102039.25;5051169;28;20080;-40
2022/04/18 05:55:08;;;;;;;5.00;2.90;;;;;;;19.26;39.81;102043.78;5051488;28;20048;-40
2022/04/18 05:57:35;;;;;;;5.10;3.25;;;;;;;19.24;39.59;102037.69;5050593;28;20044;-40
2022/04/18 06:00:04;;;;;;;3.30;2.63;;;;;;;19.24;40.08;102035.00;5048725;28;20076;-40
2022/04/18 06:02:31;;;;;;;8.80;3.10;;;;;;;19.23;39.69;102038.69;5052260;28;20099;-40
2022/04/18 06:05:04;;;;;;;5.30;3.30;;;;;;;19.24;39.83;102035.00;5054465;28;20044;-39
2022/04/18 06:07:30;;;;;;;6.15;2.60;;;;;;;19.24;39.66;102038.53;5054378;28;20037;-39
2022/04/18 06:09:57;;;;;;;4.88;3.00;;;;;;;19.25;39.71;102044.75;5036810;28;20044;-39
2022/04/18 06:12:24;;;;;;;3.60;2.42;;;;;;;19.22;39.74;102040.50;5053827;28;20124;-39
2022/04/18 06:14:50;;;;;;;5.65;3.30;;;;;;;19.23;39.87;102035.97;5053650;28;20045;-39
2022/04/18 06:17:17;;;;;;;5.00;3.00;;;;;;;19.23;39.53;102041.38;5056244;28;20124;-39
2022/04/18 06:19:43;;;;;;;4.40;2.72;;;;;;;19.22;39.23;102040.50;5054043;28;20047;-39
2022/04/18 06:22:10;;;;;;;6.65;2.72;;;;;;;19.23;40.00;102038.69;5053925;28;20049;-39
2022/04/18 06:24:36;;;;;;;4.43;2.88;;;;;;;19.23;39.32;102038.69;5053612;28;20060;-39
2022/04/18 06:27:03;;;;;;;3.75;2.60;;;;;;;19.22;39.48;102032.44;5054339;28;20037;-39
2022/04/18 06:29:30;;;;;;;4.32;2.78;;;;;;;19.22;40.08;102031.59;5055505;28;20048;-39
2022/04/18 06:31:56;;;;;;;2.95;2.40;;;;;;;19.22;40.17;102036.97;5053496;28;20346;-39
2022/04/18 06:34:25;;;;;;;4.57;2.95;;;;;;;19.23;39.35;102026.09;5054253;28;20041;-39
2022/04/18 06:36:52;;;;;;;5.00;2.88;;;;;;;19.23;39.57;102027.91;5051824;28;20428;-39
2022/04/18 06:39:18;;;;;;;3.70;2.70;;;;;;;19.24;39.73;102029.63;5053325;28;20128;-39
2022/04/18 06:41:45;;;;;;;3.42;2.45;;;;;;;19.25;40.03;102028.63;5054760;28;20060;-39
2022/04/18 06:44:11;;;;;;;5.28;2.58;;;;;;;19.28;40.35;102027.53;5052322;28;20053;-39
2022/04/18 06:46:38;;;;;;;4.22;2.20;;;;;;;19.28;39.82;102033.75;5053745;28;20670;-39
2022/04/18 06:49:04;;;;;;;4.45;2.38;;;;;;;19.31;39.97;102033.50;5053542;28;20128;-39
2022/04/18 06:51:31;;;;;;;3.90;2.53;;;;;;;19.34;39.72;102035.91;5055692;28;20063;-39
2022/04/18 06:53:57;;;;;;;4.00;2.65;;;;;;;19.38;40.15;102039.19;5053761;28;20047;-40
2022/04/18 06:59:09;;;;;;;4.07;2.20;;;;;;;19.43;40.00;102031.56;5053372;28;20048;-39
2022/04/18 07:01:35;;;;;;;4.60;2.60;;;;;;;19.45;39.61;102029.59;5052803;28;20044;-40
2022/04/18 07:04:02;;;;;;;2.78;2.05;;;;;;;19.46;39.13;102029.47;5052807;28;20072;-39
2022/04/18 07:06:29;;;;;;;3.58;2.20;;;;;;;19.48;39.37;102032.00;5053987;28;20041;-39
2022/04/18 07:08:56;;;;;;;2.28;1.90;;;;;;;19.49;39.21;102025.63;5054621;28;20051;-39
2022/04/18 07:11:22;;;;;;;3.85;2.78;;;;;;;19.51;38.86;102033.59;5053235;28;20051;-39
2022/04/18 07:13:49;;;;;;;3.80;2.70;;;;;;;19.50;38.76;102032.75;5051876;28;20172;-39
2022/04/18 07:16:15;;;;;;;4.18;2.30;;;;;;;19.51;38.98;102038.97;5052329;28;20052;-39
2022/04/18 07:18:42;;;;;;;2.78;2.20;;;;;;;19.50;38.67;102035.44;5053897;28;20212;-39
2022/04/18 07:21:08;;;;;;;4.07;2.47;;;;;;;19.51;38.54;102034.44;5052198;28;20128;-39
2022/04/18 07:23:35;;;;;;;2.92;2.03;;;;;;;19.51;38.31;102037.13;5053477;28;20055;-39
2022/04/18 07:26:01;;;;;;;3.30;2.35;;;;;;;19.51;38.71;102034.44;5033351;28;20049;-39
2022/04/18 07:28:28;;;;;;;4.43;1.80;;;;;;;19.52;38.88;102035.28;5055109;28;20041;-40
2022/04/18 07:30:55;;;;;;;4.15;2.05;;;;;;;19.53;38.94;102036.97;5055238;28;20120;-39
2022/04/18 07:33:21;;;;;;;3.65;2.35;;;;;;;19.54;38.65;102033.28;5051778;28;20428;-39
2022/04/18 07:35:48;;;;;;;4.25;2.08;;;;;;;19.55;38.79;102037.72;5053088;28;20049;-39
2022/04/18 07:41:04;;;;;;;3.53;1.92;;;;;;;19.56;39.04;102034.03;5053318;28;20127;-39
2022/04/18 07:43:37;;;;;;;5.25;2.72;;;;;;;19.56;38.54;102034.88;5052025;28;20076;-39
2022/04/18 07:46:04;;;;;;;2.20;1.83;;;;;;;19.55;38.67;102022.44;5052853;28;20495;-39
2022/04/18 07:48:32;;;;;;;3.25;2.25;;;;;;;19.56;38.37;102029.50;5053369;28;20068;-40
2022/04/18 07:53:44;;;;;;;3.58;2.20;;;;;;;19.60;38.56;102032.78;5052369;28;20057;-40
2022/04/18 07:56:11;;;;;;;5.90;2.45;;;;;;;19.60;38.81;102027.41;5052645;28;20059;-40
2022/04/18 07:58:37;;;;;;;2.38;1.80;;;;;;;19.60;38.56;102030.09;5052401;28;20043;-40
2022/04/18 08:01:04;;;;;;;2.88;1.60;;;;;;;19.59;38.18;102028.38;5051063;28;20048;-40
2022/04/18 08:03:34;;;;;;;2.47;1.70;;;;;;;19.60;38.43;102025.56;5053430;28;20135;-41
2022/04/18 08:06:01;;;;;;;2.53;1.92;;;;;;;19.61;38.72;102023.72;5051915;28;20428;-40
2022/04/18 08:08:28;;;;;;;3.20;2.22;;;;;;;19.62;38.50;102029.00;5056177;28;20047;-39
2022/04/18 08:10:54;;;;;;;2.45;1.65;;;;;;;19.63;38.33;102030.69;5051984;28;20128;-40
2022/04/18 08:13:21;;;;;;;3.85;1.88;;;;;;;19.64;37.98;102028.84;5052461;28;20365;-40
2022/04/18 08:15:48;;;;;;;2.45;1.60;;;;;;;19.64;38.38;102023.47;5048412;28;20077;-40
2022/04/18 08:18:14;;;;;;;3.03;1.77;;;;;;;19.66;37.96;102026.91;5051955;28;20385;-40
2022/04/18 08:20:41;;;;;;;2.60;1.60;;;;;;;19.66;38.81;102025.06;5053297;28;20047;-40
2022/04/18 08:23:07;;;;;;;2.95;1.98;;;;;;;19.68;38.85;102019.53;5052530;28;20045;-40
2022/04/18 08:25:34;;;;;;;2.25;1.58;;;;;;;19.68;38.40;102025.75;5051138;28;20436;-40
2022/04/18 08:28:01;;;;;;;2.65;1.80;;;;;;;19.70;38.07;102026.50;5053944;28;20067;-40
2022/04/18 08:30:27;;;;;;;6.32;1.83;;;;;;;19.71;37.75;102024.66;5049680;28;20119;-40
2022/04/18 08:32:54;;;;;;;3.28;1.67;;;;;;;19.71;37.37;102025.50;5053915;28;20057;-40
2022/04/18 08:35:21;;;;;;;3.00;1.80;;;;;;;19.73;37.86;102028.88;5054299;28;20081;-39
2022/04/18 08:37:48;;;;;;;2.47;1.80;;;;;;;19.75;38.08;102033.31;5052213;28;20037;-40
2022/04/18 08:40:15;;;;;;;1.77;1.40;;;;;;;19.76;38.04;102026.94;5051087;28;20127;-40
2022/04/18 08:42:42;;;;;;;2.38;1.50;;;;;;;19.77;38.48;102034.84;5048714;28;20045;-40
2022/04/18 08:45:11;;;;;;;1.80;1.42;;;;;;;19.79;38.61;102032.03;5048246;28;20484;-40
2022/04/18 08:53:16;;;;;;;2.03;1.33;;;;;;;19.85;39.22;102029.63;5048693;28;20071;-40
2022/04/18 08:55:42;;;;;;;2.85;1.60;;;;;;;19.87;39.34;102027.69;5050453;28;20460;-40
2022/04/18 08:58:14;;;;;;;2.40;1.67;;;;;;;19.89;39.63;102022.16;5050593;28;20056;-40
2022/04/18 09:00:42;;;;;;;2.58;1.60;;;;;;;19.92;39.27;102028.09;5050288;28;20049;-40
2022/04/18 09:03:08;;;;;;;2.97;1.55;;;;;;;19.95;39.70;102037.75;5051026;28;20131;-40
2022/04/18 09:05:37;;;;;;;2.03;1.50;;;;;;;19.97;39.96;102033.91;5052566;28;21214;-40
2022/04/18 09:08:08;;;;;;;2.22;1.52;;;;;;;19.99;40.07;102039.19;5050107;28;20041;-40
2022/04/18 09:10:36;;;;;;;2.45;1.58;;;;;;;20.02;40.50;102028.16;5051141;28;20071;-40
2022/04/18 09:13:13;;;;;;;2.85;1.55;;;;;;;20.04;40.37;102028.84;5051352;28;20332;-41
2022/04/18 09:15:48;;;;;;;2.67;1.30;;;;;;;20.06;40.09;102029.56;5048781;28;20048;-41
2022/04/18 09:18:20;;;;;;;3.20;1.60;;;;;;;20.09;40.61;102033.81;5049367;28;20701;-40
2022/04/18 09:20:53;;;;;;;2.40;1.55;;;;;;;20.11;40.54;102035.38;5050469;28;20152;-40
2022/04/18 09:23:27;;;;;;;3.13;1.70;;;;;;;20.14;40.27;102029.75;5050085;28;20674;-41
2022/04/18 09:26:01;;;;;;;2.60;1.60;;;;;;;20.17;40.59;102031.28;5049446;28;20132;-41
2022/04/18 09:28:33;;;;;;;1.63;1.27;;;;;;;20.18;40.34;102028.47;5048233;28;20416;-40
2022/04/18 09:31:07;;;;;;;1.95;1.40;;;;;;;20.24;39.94;102027.03;5050376;28;20458;-40
2022/04/18 09:33:37;;;;;;;2.67;1.20;;;;;;;20.27;40.42;102029.47;5051357;28;20049;-40
2022/04/18 09:36:12;;;;;;;2.45;1.63;;;;;;;20.32;40.03;102029.03;5050169;28;20445;-40
2022/04/18 09:38:44;;;;;;;2.85;1.60;;;;;;;20.36;40.14;102019.69;5053768;28;20044;-40
2022/04/18 09:41:31;;;;;;;1.83;1.20;;;;;;;20.40;40.19;102023.81;5056896;28;20044;-40
2022/04/18 09:43:59;;;;;;;2.53;1.52;;;;;;;20.45;40.34;102018.84;5057247;28;20681;-40
2022/04/18 09:46:26;;;;;;;2.60;1.58;;;;;;;20.48;40.37;102026.66;5057530;28;20335;-40
2022/04/18 09:49:00;;;;;;;1.67;1.17;;;;;;;20.53;40.35;102026.25;5054975;28;20373;-41
2022/04/18 09:51:37;;;;;;;2.58;1.73;;;;;;;20.57;40.40;102017.75;5057507;28;20356;-41
2022/04/18 09:54:05;;;;;;;2.00;1.40;;;;;;;20.60;39.83;102012.06;5057093;28;20134;-41
2022/04/18 09:56:33;;;;;;;2.47;1.20;;;;;;;20.63;40.21;102011.81;5059490;28;20085;-41
2022/04/18 09:59:01;;;;;;;1.75;1.23;;;;;;;20.66;39.90;102005.25;5056200;28;20127;-40
2022/04/18 10:01:33;;;;;;;5.00;1.65;;;;;;;20.68;40.22;102000.59;5056908;28;20044;-43
2022/04/18 10:04:03;;;;;;;4.38;1.63;;;;;;;20.73;39.64;102008.25;5057382;28;20041;-43
2022/04/18 10:06:30;;;;;;;2.72;1.48;;;;;;;20.74;39.89;102002.69;5058153;28;20060;-41
2022/04/18 10:08:58;;;;;;;1.60;1.20;;;;;;;20.76;39.76;101999.88;5058365;28;20112;-42
2022/04/18 10:11:24;;;;;;;2.22;1.52;;;;;;;20.78;39.57;102000.56;5051816;28;20411;-42
2022/04/18 10:13:51;;;;;;;2.22;1.33;;;;;;;20.79;40.26;102000.44;5053537;28;20131;-43
2022/04/18 10:16:19;;;;;;;2.28;1.35;;;;;;;20.83;39.92;102006.41;5053375;28;20049;-42
2022/04/18 10:18:52;;;;;;;2.40;1.30;;;;;;;20.82;40.12;102007.38;5057721;28;20040;-41
2022/04/18 10:21:30;;;;;;;2.03;1.48;;;;;;;20.85;39.47;102001.72;5053468;28;20158;-41
2022/04/18 10:24:03;;;;;;;2.03;1.33;;;;;;;20.87;40.24;101999.72;5053876;28;20056;-41
2022/04/18 10:26:55;;;;;;;2.30;1.50;;;;;;;20.88;39.94;102006.81;5054108;28;20048;-40
2022/04/18 10:29:29;;;;;;;1.52;1.20;;;;;;;20.90;39.70;101991.34;5053750;28;20041;-40
2022/04/18 10:31:59;;;;;;;1.45;1.00;;;;;;;20.92;39.78;101992.91;5054720;28;20053;-41
2022/04/18 10:34:31;;;;;;;1.77;1.15;;;;;;;20.94;39.53;101995.44;5055140;28;20565;-41
2022/04/18 10:37:03;;;;;;;1.90;1.40;;;;;;;20.96;40.22;101996.16;5053254;28;20124;-42
2022/04/18 10:39:37;;;;;;;2.00;1.20;;;;;;;20.98;39.76;101994.16;5055537;28;20412;-41
2022/04/18 10:42:27;;;;;;;2.55;1.40;;;;;;;20.99;39.85;101990.50;5055534;28;20047;-40
2022/04/18 10:45:04;;;;;;;2.45;0.90;;;;;;;21.03;39.52;101993.75;5054870;28;20041;-41
2022/04/18 10:48:00;;;;;;;1.33;1.00;;;;;;;21.04;39.74;101979.25;5054276;28;20037;-42
2022/04/18 10:50:28;;;;;;;2.03;1.20;;;;;;;21.07;39.34;101978.97;5043317;28;20045;-42
2022/04/18 10:53:11;;;;;;;1.58;1.08;;;;;;;21.09;39.45;101980.50;5053290;28;20065;-41
2022/04/18 10:55:39;;;;;;;4.22;1.10;;;;;;;21.12;39.73;101976.69;5051524;28;20037;-40
2022/04/18 10:58:12;;;;;;;1.40;1.30;;;;;;;21.14;39.54;101974.69;5053695;28;20033;-40
2022/04/18 11:01:09;;;;;;;2.20;1.10;;;;;;;21.15;39.86;101969.16;5050715;28;20055;-40
2022/04/18 11:03:39;;;;;;;1.30;1.02;;;;;;;21.19;39.51;101969.72;5033326;28;20331;-40
2022/04/18 11:06:18;;;;;;;1.38;0.98;;;;;;;21.20;39.17;101968.72;5053310;28;20363;-40
2022/04/18 11:08:59;;;;;;;2.15;1.10;;;;;;;21.23;39.43;101973.81;5052949;28;20043;-40
2022/04/18 11:11:34;;;;;;;1.90;1.08;;;;;;;21.26;39.65;101969.97;5054231;28;20133;-41
2022/04/18 11:14:00;;;;;;;1.55;0.90;;;;;;;21.29;39.47;101966.97;5051775;28;20538;-41
2022/04/18 11:16:27;;;;;;;1.80;1.10;;;;;;;21.30;39.62;101969.50;5052579;28;20475;-41
2022/04/18 11:19:16;;;;;;;1.50;1.10;;;;;;;21.33;39.36;101965.72;5053186;28;20041;-41
2022/04/18 11:22:00;;;;;;;1.23;1.00;;;;;;;21.35;39.21;101971.81;5055109;28;20078;-39
2022/04/18 11:24:48;;;;;;;1.50;1.08;;;;;;;21.36;39.37;101973.50;5052466;28;20057;-40
2022/04/18 11:27:35;;;;;;;1.45;1.05;;;;;;;21.38;39.57;101969.66;5051283;28;20047;-40
2022/04/18 11:30:14;;;;;;;1.27;0.98;;;;;;;21.39;39.48;101959.75;5052017;28;20048;-41
2022/04/18 11:32:46;;;;;;;2.45;1.08;;;;;;;21.40;39.09;101961.44;5053024;28;20119;-41
2022/04/18 11:35:14;;;;;;;1.52;1.05;;;;;;;21.42;39.72;101967.50;5055969;28;20053;-40
2022/04/18 11:37:43;;;;;;;1.70;1.25;;;;;;;21.43;39.32;101959.28;5049153;28;20059;-40
2022/04/18 11:40:18;;;;;;;2.65;1.27;;;;;;;21.45;39.40;101951.03;5051215;28;20135;-41
2022/04/18 11:42:45;;;;;;;1.75;1.10;;;;;;;21.46;39.28;101955.44;5048451;28;20079;-41
2022/04/18 11:45:26;;;;;;;1.52;1.00;;;;;;;21.48;39.28;101944.50;5046885;28;20057;-41
2022/04/18 11:47:54;;;;;;;1.10;0.77;;;;;;;21.50;39.20;101942.50;5051513;28;20170;-41
2022/04/18 11:50:24;;;;;;;1.63;1.10;;;;;;;21.51;39.53;101942.38;5048180;28;21205;-41
2022/04/18 11:53:06;;;;;;;1.10;0.80;;;;;;;21.52;39.25;101941.34;5050080;28;20056;-42
2022/04/18 11:55:42;;;;;;;1.15;0.93;;;;;;;21.55;39.70;101938.38;5051979;28;20124;-41